createdAt,value
2023-11-09T00:00:20.758Z,1.90
2023-11-09T00:02:48.559Z,2.63
2023-11-09T00:05:17.929Z,2.10
2023-11-09T00:07:45.662Z,2.20
2023-11-09T00:10:14.654Z,1.87
2023-11-09T00:12:44.242Z,1.90
2023-11-09T00:15:12.432Z,1.63
2023-11-09T00:17:40.624Z,2.38
2023-11-09T00:20:09.337Z,1.20
2023-11-09T00:22:39.174Z,2.43
2023-11-09T00:25:08.010Z,1.67
2023-11-09T00:27:35.600Z,2.05
2023-11-09T00:30:03.410Z,1.63
2023-11-09T00:32:31.674Z,1.90
2023-11-09T00:34:59.316Z,1.27
2023-11-09T00:37:29.735Z,1.63
2023-11-09T00:40:01.064Z,1.17
2023-11-09T00:42:28.846Z,1.17
2023-11-09T00:44:56.708Z,1.85
2023-11-09T00:47:24.701Z,1.13
2023-11-09T00:49:54.520Z,1.48
2023-11-09T00:52:22.235Z,2.28
2023-11-09T00:54:50.788Z,1.95
2023-11-09T00:57:22.035Z,1.77
2023-11-09T00:59:50.746Z,2.87
2023-11-09T01:02:18.604Z,1.90
2023-11-09T01:04:46.279Z,1.55
2023-11-09T01:07:14.755Z,1.90
2023-11-09T01:09:47.096Z,1.85
2023-11-09T01:12:14.708Z,1.90
2023-11-09T01:14:44.985Z,1.40
2023-11-09T01:17:12.825Z,1.98
2023-11-09T01:19:40.483Z,1.38
2023-11-09T01:22:08.291Z,1.50
2023-11-09T01:24:36.379Z,1.20
2023-11-09T01:27:03.181Z,1.73
2023-11-09T01:29:30.953Z,1.10
2023-11-09T01:32:01.168Z,1.48
2023-11-09T01:34:28.772Z,1.60
2023-11-09T01:36:56.526Z,1.53
2023-11-09T01:39:24.822Z,1.83
2023-11-09T01:41:52.467Z,1.63
2023-11-09T01:44:20.316Z,1.60
2023-11-09T01:46:54.273Z,1.70
2023-11-09T01:49:24.202Z,1.23
2023-11-09T01:51:55.604Z,2.30
2023-11-09T01:54:23.667Z,2.08
2023-11-09T01:56:51.916Z,1.50
2023-11-09T01:59:20.108Z,1.70
2023-11-09T02:01:48.819Z,1.93
2023-11-09T02:04:17.590Z,1.38
2023-11-09T02:06:47.316Z,1.40
2023-11-09T02:09:14.967Z,1.90
2023-11-09T02:11:43.209Z,2.17
2023-11-09T02:14:15.963Z,1.33
2023-11-09T02:16:43.985Z,1.60
2023-11-09T02:19:13.378Z,1.40
2023-11-09T02:21:41.882Z,1.20
2023-11-09T02:24:13.298Z,1.45
2023-11-09T02:26:40.983Z,1.00
2023-11-09T02:29:09.079Z,1.30
2023-11-09T02:31:36.935Z,1.25
2023-11-09T02:34:04.669Z,1.15
2023-11-09T02:36:33.885Z,1.70
2023-11-09T02:39:01.540Z,1.70
2023-11-09T02:41:30.540Z,1.00
2023-11-09T02:43:58.445Z,2.28
2023-11-09T02:46:26.050Z,1.83
2023-11-09T02:48:54.832Z,1.17
2023-11-09T02:51:23.149Z,1.20
2023-11-09T02:53:50.835Z,1.63
2023-11-09T02:56:18.539Z,1.65
2023-11-09T02:58:47.636Z,1.75
2023-11-09T03:01:15.344Z,1.60
2023-11-09T03:03:43.471Z,1.80
2023-11-09T03:06:13.027Z,1.75
2023-11-09T03:08:40.577Z,1.73
2023-11-09T03:11:08.279Z,1.52
2023-11-09T03:13:40.829Z,1.40
2023-11-09T03:16:10.983Z,1.83
2023-11-09T03:18:39.129Z,1.40
2023-11-09T03:23:55.070Z,1.40
2023-11-09T03:26:22.729Z,2.13
2023-11-09T03:28:50.318Z,1.45
2023-11-09T03:31:19.368Z,1.10
2023-11-09T03:33:46.973Z,1.52
2023-11-09T03:36:18.445Z,1.35
2023-11-09T03:38:46.954Z,1.27
2023-11-09T03:41:14.514Z,1.63
2023-11-09T03:43:42.093Z,0.90
2023-11-09T03:46:13.412Z,2.30
2023-11-09T03:48:42.566Z,1.27
2023-11-09T03:51:10.138Z,1.85
2023-11-09T03:53:38.120Z,1.20
2023-11-09T03:56:05.905Z,1.40
2023-11-09T03:58:32.502Z,1.98
2023-11-09T04:01:00.206Z,1.13
2023-11-09T04:03:27.768Z,1.13
2023-11-09T04:05:56.705Z,1.67
2023-11-09T04:08:25.208Z,1.00
2023-11-09T04:10:52.733Z,1.00
2023-11-09T04:13:20.358Z,1.70
2023-11-09T04:15:48.142Z,1.05
2023-11-09T04:18:15.732Z,1.55
2023-11-09T04:20:44.262Z,1.43
2023-11-09T04:23:13.960Z,1.77
2023-11-09T04:25:41.821Z,1.70
2023-11-09T04:28:09.479Z,1.02
2023-11-09T04:30:37.968Z,1.48
2023-11-09T04:33:10.694Z,1.23
2023-11-09T04:35:39.325Z,1.10
2023-11-09T04:38:07.725Z,1.00
2023-11-09T04:40:37.913Z,0.90
2023-11-09T04:43:13.780Z,1.38
2023-11-09T04:45:43.308Z,1.13
2023-11-09T04:48:21.588Z,1.40
2023-11-09T04:50:52.954Z,1.10
2023-11-09T04:53:31.448Z,1.17
2023-11-09T04:56:08.474Z,1.50
2023-11-09T04:58:46.176Z,0.77
2023-11-09T05:01:31.016Z,1.35
2023-11-09T05:04:16.160Z,0.75
2023-11-09T05:06:53.934Z,1.10
2023-11-09T05:09:22.779Z,0.95
2023-11-09T05:11:52.216Z,1.07
2023-11-09T05:14:20.059Z,0.90
2023-11-09T05:16:52.527Z,1.52
2023-11-09T05:19:20.117Z,1.23
2023-11-09T05:21:48.755Z,1.42
2023-11-09T05:24:18.289Z,1.33
2023-11-09T05:26:47.371Z,0.70
2023-11-09T05:29:16.636Z,0.70
2023-11-09T05:31:46.001Z,0.52
2023-11-09T05:34:13.692Z,1.00
2023-11-09T05:36:41.900Z,0.70
2023-11-09T05:39:11.718Z,1.10
2023-11-09T05:41:40.504Z,1.13
2023-11-09T05:46:56.769Z,0.70
2023-11-09T05:49:25.168Z,0.80
2023-11-09T05:51:53.093Z,1.08
2023-11-09T05:54:20.985Z,0.90
2023-11-09T05:56:48.599Z,0.43
2023-11-09T05:59:22.860Z,0.65
2023-11-09T06:01:50.914Z,1.17
2023-11-09T06:04:19.991Z,1.35
2023-11-09T06:06:51.745Z,0.55
2023-11-09T06:09:19.481Z,1.38
2023-11-09T06:11:47.470Z,0.63
2023-11-09T06:14:17.519Z,0.53
2023-11-09T06:16:46.788Z,0.43
2023-11-09T06:19:16.097Z,0.73
2023-11-09T06:21:45.741Z,0.30
2023-11-09T06:24:15.091Z,0.50
2023-11-09T06:26:43.330Z,0.70
2023-11-09T06:29:11.069Z,0.40
2023-11-09T06:31:39.507Z,0.32
2023-11-09T06:34:15.458Z,0.40
2023-11-09T06:36:47.132Z,0.50
2023-11-09T06:39:18.092Z,0.40
2023-11-09T06:41:46.493Z,0.68
2023-11-09T06:44:14.155Z,0.65
2023-11-09T06:46:41.887Z,0.43
2023-11-09T06:49:09.927Z,0.40
2023-11-09T06:51:39.011Z,0.50
2023-11-09T06:54:07.228Z,0.50
2023-11-09T06:56:40.622Z,1.13
2023-11-09T06:59:09.387Z,0.50
2023-11-09T07:01:37.012Z,0.73
2023-11-09T07:04:05.914Z,0.60
2023-11-09T07:06:34.648Z,0.98
2023-11-09T07:09:02.239Z,0.40
2023-11-09T07:11:37.686Z,0.55
2023-11-09T07:14:08.033Z,0.40
2023-11-09T07:16:35.803Z,0.40
2023-11-09T07:19:03.486Z,0.85
2023-11-09T07:21:31.197Z,0.30
2023-11-09T07:24:05.610Z,0.45
2023-11-09T07:26:33.263Z,0.40
2023-11-09T07:29:00.890Z,0.90
2023-11-09T07:31:30.503Z,0.80
2023-11-09T07:33:58.219Z,0.50
2023-11-09T07:36:25.962Z,0.30
2023-11-09T07:38:55.342Z,0.63
2023-11-09T07:41:26.464Z,0.30
2023-11-09T07:43:54.446Z,0.68
2023-11-09T07:46:22.605Z,0.40
2023-11-09T07:48:51.618Z,0.43
2023-11-09T07:51:24.878Z,0.50
2023-11-09T07:53:53.249Z,0.50
2023-11-09T07:56:21.045Z,0.55
2023-11-09T07:58:49.523Z,0.70
2023-11-09T08:01:17.352Z,0.52
2023-11-09T08:03:46.477Z,0.40
2023-11-09T08:06:15.933Z,0.50
2023-11-09T08:08:45.481Z,0.63
2023-11-09T08:11:13.464Z,0.73
2023-11-09T08:13:41.209Z,0.65
2023-11-09T08:16:09.190Z,0.60
2023-11-09T08:18:44.615Z,0.60
2023-11-09T08:21:16.485Z,0.40
2023-11-09T08:23:45.610Z,0.60
2023-11-09T08:26:13.445Z,0.43
2023-11-09T08:28:41.751Z,0.55
2023-11-09T08:31:10.370Z,0.40
2023-11-09T08:33:38.238Z,1.00
2023-11-09T08:36:06.624Z,0.45
2023-11-09T08:38:34.673Z,0.70
2023-11-09T08:41:06.978Z,0.68
2023-11-09T08:43:35.012Z,0.47
2023-11-09T08:46:03.789Z,0.40
2023-11-09T08:48:31.399Z,0.50
2023-11-09T08:51:03.176Z,0.50
2023-11-09T08:53:32.613Z,0.50
2023-11-09T08:56:01.659Z,0.50
2023-11-09T08:58:37.982Z,0.40
2023-11-09T09:01:17.514Z,0.40
2023-11-09T09:03:46.372Z,0.47
2023-11-09T09:06:14.369Z,0.30
2023-11-09T09:08:43.269Z,0.30
2023-11-09T09:11:13.769Z,0.40
2023-11-09T09:13:43.258Z,0.52
2023-11-09T09:16:13.656Z,0.52
2023-11-09T09:18:41.496Z,0.30
2023-11-09T09:21:10.597Z,0.30
2023-11-09T09:23:39.436Z,0.40
2023-11-09T09:26:15.212Z,0.45
2023-11-09T09:28:49.882Z,0.50
2023-11-09T09:31:20.640Z,0.77
2023-11-09T09:33:57.976Z,0.40
2023-11-09T09:36:28.079Z,0.20
2023-11-09T09:38:55.742Z,0.45
2023-11-09T09:41:28.850Z,0.30
2023-11-09T09:43:59.065Z,0.50
2023-11-09T09:46:33.914Z,0.40
2023-11-09T09:49:04.520Z,0.32
2023-11-09T09:51:36.858Z,0.30
2023-11-09T09:54:04.947Z,0.40
2023-11-09T09:56:33.157Z,0.70
2023-11-09T09:59:02.757Z,0.30
2023-11-09T10:01:30.414Z,0.35
2023-11-09T10:03:58.631Z,0.35
2023-11-09T10:06:26.730Z,0.60
2023-11-09T10:08:54.302Z,0.63
2023-11-09T10:11:23.171Z,2.63
2023-11-09T10:13:51.739Z,0.68
2023-11-09T10:16:22.068Z,0.50
2023-11-09T10:18:49.900Z,0.45
2023-11-09T10:21:19.227Z,0.35
2023-11-09T10:23:53.836Z,0.40
2023-11-09T10:26:22.590Z,0.40
2023-11-09T10:28:52.573Z,0.43
2023-11-09T10:31:34.062Z,0.30
2023-11-09T10:34:02.986Z,0.63
2023-11-09T10:36:31.804Z,0.40
2023-11-09T10:39:00.029Z,0.65
2023-11-09T10:41:53.761Z,0.50
2023-11-09T10:44:24.021Z,0.47
2023-11-09T10:46:54.581Z,0.50
2023-11-09T10:49:25.749Z,0.30
2023-11-09T10:51:55.803Z,0.43
2023-11-09T10:54:25.767Z,0.40
2023-11-09T10:56:57.929Z,0.40
2023-11-09T10:59:27.522Z,0.45
2023-11-09T11:02:04.935Z,0.40
2023-11-09T11:04:36.033Z,0.40
2023-11-09T11:07:07.640Z,0.50
2023-11-09T11:09:39.513Z,0.80
2023-11-09T11:12:09.319Z,0.30
2023-11-09T11:14:41.567Z,1.30
2023-11-09T11:17:29.492Z,0.43
2023-11-09T11:20:18.980Z,0.50
2023-11-09T11:22:56.174Z,0.80
2023-11-09T11:25:31.862Z,0.63
2023-11-09T11:28:01.385Z,0.50
2023-11-09T11:30:29.802Z,0.40
2023-11-09T11:33:00.862Z,0.30
2023-11-09T11:35:31.991Z,0.50
2023-11-09T11:38:08.003Z,0.47
2023-11-09T11:40:36.114Z,0.77
2023-11-09T11:43:06.444Z,0.40
2023-11-09T11:45:40.595Z,0.50
2023-11-09T11:48:13.992Z,0.30
2023-11-09T11:50:43.082Z,0.80
2023-11-09T11:53:25.679Z,0.40
2023-11-09T11:55:57.971Z,0.40
2023-11-09T11:58:30.215Z,0.38
2023-11-09T12:00:57.965Z,0.50
2023-11-09T12:03:26.950Z,0.60
2023-11-09T12:06:17.767Z,0.57
2023-11-09T12:08:49.947Z,0.40
2023-11-09T12:11:24.704Z,0.50
2023-11-09T12:13:52.768Z,0.60
2023-11-09T12:16:29.939Z,1.02
2023-11-09T12:18:59.379Z,0.63
2023-11-09T12:21:28.560Z,0.60
2023-11-09T12:23:59.646Z,0.50
2023-11-09T12:26:29.699Z,0.60
2023-11-09T12:29:03.931Z,0.60
2023-11-09T12:31:32.084Z,0.50
2023-11-09T12:34:10.695Z,0.50
2023-11-09T12:36:40.990Z,0.20
2023-11-09T12:39:29.458Z,0.60
2023-11-09T12:41:59.178Z,0.50
2023-11-09T12:44:27.510Z,0.60
2023-11-09T12:46:57.279Z,0.55
2023-11-09T12:49:31.253Z,0.50
2023-11-09T12:52:01.479Z,0.60
2023-11-09T12:54:30.566Z,0.40
2023-11-09T12:56:58.507Z,0.40
2023-11-09T12:59:30.344Z,0.38
2023-11-09T13:01:58.544Z,0.50
2023-11-09T13:04:30.265Z,0.60
2023-11-09T13:06:58.143Z,1.42
2023-11-09T13:09:42.934Z,0.57
2023-11-09T13:12:30.441Z,0.30
2023-11-09T13:15:15.371Z,0.38
2023-11-09T13:17:54.080Z,0.40
2023-11-09T13:20:32.279Z,0.57
2023-11-09T13:23:08.265Z,0.53
2023-11-09T13:25:42.474Z,0.57
2023-11-09T13:28:11.042Z,0.50
2023-11-09T13:30:53.063Z,0.60
2023-11-09T13:33:35.945Z,0.40
2023-11-09T13:36:06.664Z,0.70
2023-11-09T13:38:42.385Z,1.52
2023-11-09T13:41:19.862Z,0.52
2023-11-09T13:44:00.621Z,0.73
2023-11-09T13:46:29.191Z,0.30
2023-11-09T13:49:15.663Z,0.37
2023-11-09T13:51:51.505Z,0.52
2023-11-09T13:54:26.419Z,0.50
2023-11-09T13:57:23.860Z,0.30
2023-11-09T13:59:56.165Z,0.30
2023-11-09T14:02:26.695Z,0.30
2023-11-09T14:04:57.882Z,0.20
2023-11-09T14:07:33.749Z,0.15
2023-11-09T14:10:02.074Z,0.40
2023-11-09T14:12:43.369Z,0.30
2023-11-09T14:15:24.086Z,0.30
2023-11-09T14:17:53.084Z,0.30
2023-11-09T14:20:31.771Z,0.30
2023-11-09T14:23:04.636Z,0.40
2023-11-09T14:25:33.781Z,0.38
2023-11-09T14:28:01.976Z,0.50
2023-11-09T14:30:32.559Z,0.43
2023-11-09T14:33:02.111Z,0.30
2023-11-09T14:35:31.518Z,0.40
2023-11-09T14:38:03.453Z,0.40
2023-11-09T14:40:37.561Z,0.80
2023-11-09T14:43:10.487Z,0.30
2023-11-09T14:45:42.603Z,0.50
2023-11-09T14:48:12.512Z,1.20
2023-11-09T14:50:41.327Z,1.05
2023-11-09T14:56:04.353Z,0.60
2023-11-09T14:58:34.764Z,0.75
2023-11-09T15:01:04.312Z,0.45
2023-11-09T15:03:34.874Z,0.82
2023-11-09T15:06:10.924Z,0.60
2023-11-09T15:08:40.345Z,0.80
2023-11-09T15:11:12.008Z,1.40
2023-11-09T15:13:40.550Z,1.17
2023-11-09T15:16:09.920Z,1.08
2023-11-09T15:18:38.282Z,0.80
2023-11-09T15:21:06.558Z,0.88
2023-11-09T15:23:34.610Z,0.68
2023-11-09T15:26:02.716Z,0.75
2023-11-09T15:28:32.007Z,0.52
2023-11-09T15:31:00.576Z,0.30
2023-11-09T15:33:30.870Z,0.38
2023-11-09T15:35:59.735Z,0.32
2023-11-09T15:38:27.521Z,0.28
2023-11-09T15:41:17.385Z,0.80
2023-11-09T15:43:45.481Z,0.40
2023-11-09T15:46:13.982Z,0.65
2023-11-09T15:48:42.968Z,0.40
2023-11-09T15:51:11.200Z,0.40
2023-11-09T15:53:39.394Z,0.88
2023-11-09T15:56:07.528Z,0.53
2023-11-09T15:58:35.384Z,0.52
2023-11-09T16:01:08.054Z,0.40
2023-11-09T16:03:41.218Z,0.50
2023-11-09T16:06:10.156Z,0.30
2023-11-09T16:08:38.276Z,0.40
2023-11-09T16:11:06.000Z,0.30
2023-11-09T16:13:33.694Z,0.20
2023-11-09T16:16:02.562Z,0.30
2023-11-09T16:18:33.264Z,0.57
2023-11-09T16:21:01.663Z,0.30
2023-11-09T16:23:32.243Z,0.60
2023-11-09T16:26:00.341Z,0.22
2023-11-09T16:28:32.735Z,0.40
2023-11-09T16:31:07.795Z,0.52
2023-11-09T16:33:38.129Z,0.30
2023-11-09T16:36:06.480Z,0.30
2023-11-09T16:38:34.848Z,0.50
2023-11-09T16:41:02.715Z,0.50
2023-11-09T16:43:33.069Z,0.95
2023-11-09T16:46:01.144Z,0.20
2023-11-09T16:48:29.800Z,0.40
2023-11-09T16:50:59.047Z,1.25
2023-11-09T16:53:26.627Z,0.30
2023-11-09T16:55:56.128Z,0.77
2023-11-09T16:58:24.084Z,0.20
2023-11-09T17:00:52.320Z,0.30
2023-11-09T17:03:20.208Z,0.10
2023-11-09T17:05:47.815Z,0.20
2023-11-09T17:08:17.743Z,0.30
2023-11-09T17:10:46.916Z,0.47
2023-11-09T17:13:18.688Z,0.77
2023-11-09T17:15:46.284Z,0.73
2023-11-09T17:18:18.676Z,0.38
2023-11-09T17:20:46.492Z,0.50
2023-11-09T17:23:14.129Z,1.17
2023-11-09T17:25:44.825Z,0.95
2023-11-09T17:28:12.550Z,0.32
2023-11-09T17:30:42.685Z,0.30
2023-11-09T17:33:10.539Z,0.30
2023-11-09T17:35:38.272Z,0.30
2023-11-09T17:38:05.944Z,0.40
2023-11-09T17:40:33.735Z,0.57
2023-11-09T17:43:03.089Z,0.50
2023-11-09T17:45:30.612Z,0.50
2023-11-09T17:47:58.410Z,0.50
2023-11-09T17:50:26.050Z,0.80
2023-11-09T17:52:54.169Z,0.50
2023-11-09T17:55:22.724Z,0.50
2023-11-09T17:57:51.511Z,0.40
2023-11-09T18:00:25.490Z,0.40
2023-11-09T18:02:54.948Z,0.40
2023-11-09T18:05:22.635Z,0.50
2023-11-09T18:07:50.830Z,0.32
2023-11-09T18:10:19.344Z,0.25
2023-11-09T18:12:49.075Z,0.47
2023-11-09T18:15:17.998Z,0.20
2023-11-09T18:17:47.356Z,0.43
2023-11-09T18:20:17.843Z,0.50
2023-11-09T18:22:45.701Z,0.40
2023-11-09T18:25:13.485Z,0.70
2023-11-09T18:27:41.881Z,0.50
2023-11-09T18:30:10.641Z,0.30
2023-11-09T18:32:39.075Z,0.50
2023-11-09T18:35:08.835Z,0.50
2023-11-09T18:37:37.155Z,0.67
2023-11-09T18:40:05.607Z,0.70
2023-11-09T18:42:33.468Z,1.10
2023-11-09T18:45:01.067Z,0.80
2023-11-09T18:47:29.255Z,0.90
2023-11-09T18:52:29.923Z,0.52
2023-11-09T18:54:57.889Z,0.75
2023-11-09T18:57:26.039Z,0.70
2023-11-09T18:59:54.181Z,0.90
2023-11-09T19:02:24.163Z,1.13
2023-11-09T19:04:53.288Z,1.17
2023-11-09T19:07:21.140Z,1.05
2023-11-09T19:09:51.756Z,1.02
2023-11-09T19:12:19.746Z,1.08
2023-11-09T19:14:47.553Z,0.70
2023-11-09T19:17:15.198Z,1.38
2023-11-09T19:19:42.735Z,0.95
2023-11-09T19:24:45.237Z,1.33
2023-11-09T19:27:14.334Z,1.07
2023-11-09T19:29:42.271Z,1.15
2023-11-09T19:32:12.187Z,1.05
2023-11-09T19:34:39.802Z,1.13
2023-11-09T19:37:07.345Z,1.10
2023-11-09T19:39:35.258Z,1.07
2023-11-09T19:42:08.373Z,0.82
2023-11-09T19:44:38.072Z,0.98
2023-11-09T19:47:06.223Z,1.30
2023-11-09T19:49:33.756Z,0.93
2023-11-09T19:52:01.448Z,0.90
2023-11-09T19:54:29.484Z,1.10
2023-11-09T19:56:57.265Z,1.35
2023-11-09T19:59:25.323Z,0.95
2023-11-09T20:01:54.239Z,0.75
2023-11-09T20:04:22.278Z,0.50
2023-11-09T20:06:50.896Z,1.05
2023-11-09T20:09:18.784Z,1.15
2023-11-09T20:11:49.062Z,0.98
2023-11-09T20:14:16.836Z,1.23
2023-11-09T20:16:44.378Z,1.00
2023-11-09T20:19:13.411Z,1.63
2023-11-09T20:21:41.128Z,0.88
2023-11-09T20:24:09.065Z,0.93
2023-11-09T20:26:37.856Z,1.20
2023-11-09T20:29:05.555Z,1.03
2023-11-09T20:31:33.420Z,1.02
2023-11-09T20:34:01.333Z,0.88
2023-11-09T20:36:32.253Z,0.80
2023-11-09T20:39:02.260Z,0.80
2023-11-09T20:41:31.480Z,0.90
2023-11-09T20:46:44.370Z,0.80
2023-11-09T20:49:15.205Z,0.70
2023-11-09T20:51:44.229Z,0.70
2023-11-09T20:54:11.948Z,0.97
2023-11-09T20:56:40.608Z,0.77
2023-11-09T20:59:10.550Z,1.00
2023-11-09T21:01:39.315Z,0.55
2023-11-09T21:04:08.408Z,0.82
2023-11-09T21:06:38.792Z,0.53
2023-11-09T21:09:09.195Z,0.90
2023-11-09T21:11:36.940Z,0.88
2023-11-09T21:14:04.768Z,0.57
2023-11-09T21:16:32.504Z,0.70
2023-11-09T21:19:03.708Z,0.53
2023-11-09T21:21:32.584Z,0.88
2023-11-09T21:24:02.745Z,0.63
2023-11-09T21:26:32.200Z,0.82
2023-11-09T21:28:59.718Z,0.50
2023-11-09T21:31:27.496Z,0.80
2023-11-09T21:33:57.334Z,0.60
2023-11-09T21:36:25.102Z,0.77
2023-11-09T21:38:52.844Z,1.10
2023-11-09T21:41:20.549Z,0.85
2023-11-09T21:43:49.537Z,1.10
2023-11-09T21:46:17.697Z,0.80
2023-11-09T21:48:46.241Z,0.50
2023-11-09T21:51:13.859Z,0.60
2023-11-09T21:53:41.573Z,0.40
2023-11-09T21:56:10.091Z,0.50
2023-11-09T21:58:37.722Z,0.43
2023-11-09T22:01:07.012Z,0.88
2023-11-09T22:03:35.430Z,0.90
2023-11-09T22:06:04.146Z,0.65
2023-11-09T22:08:32.217Z,0.90
2023-11-09T22:11:01.722Z,0.50
2023-11-09T22:13:29.394Z,0.35
2023-11-09T22:15:57.107Z,0.75
2023-11-09T22:18:28.064Z,0.60
2023-11-09T22:20:56.036Z,0.80
2023-11-09T22:23:24.956Z,0.73
2023-11-09T22:25:52.523Z,0.55
2023-11-09T22:28:21.186Z,0.88
2023-11-09T22:30:48.951Z,1.40
2023-11-09T22:33:19.132Z,0.90
2023-11-09T22:35:48.148Z,0.80
2023-11-09T22:38:15.828Z,1.40
2023-11-09T22:40:43.424Z,1.42
2023-11-09T22:43:13.844Z,1.13
2023-11-09T22:45:41.570Z,1.10
2023-11-09T22:48:11.859Z,0.80
2023-11-09T22:50:39.658Z,1.23
2023-11-09T22:53:12.802Z,1.02
2023-11-09T22:55:41.084Z,1.38
2023-11-09T22:58:08.893Z,1.00
2023-11-09T23:00:38.998Z,1.13
2023-11-09T23:03:07.550Z,0.80
2023-11-09T23:05:35.282Z,1.67
2023-11-09T23:08:02.890Z,0.90
2023-11-09T23:10:33.043Z,1.87
2023-11-09T23:13:02.284Z,0.90
2023-11-09T23:15:29.927Z,0.90
2023-11-09T23:17:59.605Z,1.20
2023-11-09T23:20:27.188Z,1.42
2023-11-09T23:22:54.856Z,1.10
2023-11-09T23:25:22.599Z,1.63
2023-11-09T23:27:56.467Z,1.35
2023-11-09T23:30:24.545Z,1.52
2023-11-09T23:32:52.523Z,1.20
2023-11-09T23:35:20.498Z,1.23
2023-11-09T23:37:48.574Z,1.42
2023-11-09T23:40:16.944Z,1.27
2023-11-09T23:42:46.210Z,1.00
2023-11-09T23:45:15.387Z,0.88
2023-11-09T23:47:43.380Z,0.80
2023-11-09T23:50:13.209Z,1.15
2023-11-09T23:52:41.564Z,1.00
2023-11-09T23:55:09.731Z,0.98
2023-11-09T23:57:37.771Z,0.70
